sensor_id;sensor_type;location;lat;lon;timestamp;temperature;humidity
23703;DHT22;12030;50.376;8.762;2022-12-10T00:00:42;0.30;99.90
23703;DHT22;12030;50.376;8.762;2022-12-10T00:03:07;0.20;99.90
23703;DHT22;12030;50.376;8.762;2022-12-10T00:05:34;0.20;99.90
23703;DHT22;12030;50.376;8.762;2022-12-10T00:07:59;0.20;99.90
23703;DHT22;12030;50.376;8.762;2022-12-10T00:10:25;0.20;99.90
23703;DHT22;12030;50.376;8.762;2022-12-10T00:12:50;0.20;99.90
23703;DHT22;12030;50.376;8.762;2022-12-10T00:15:16;0.20;99.90
23703;DHT22;12030;50.376;8.762;2022-12-10T00:17:42;0.30;99.90
23703;DHT22;12030;50.376;8.762;2022-12-10T00:20:08;0.30;99.90
23703;DHT22;12030;50.376;8.762;2022-12-10T00:22:34;0.30;99.90
23703;DHT22;12030;50.376;8.762;2022-12-10T00:25:00;0.20;99.90
23703;DHT22;12030;50.376;8.762;2022-12-10T00:27:25;0.20;99.90
23703;DHT22;12030;50.376;8.762;2022-12-10T00:29:51;0.20;99.90
23703;DHT22;12030;50.376;8.762;2022-12-10T00:32:16;0.20;99.90
23703;DHT22;12030;50.376;8.762;2022-12-10T00:34:42;0.20;99.90
23703;DHT22;12030;50.376;8.762;2022-12-10T00:37:07;0.20;99.90
23703;DHT22;12030;50.376;8.762;2022-12-10T00:39:33;0.10;99.90
23703;DHT22;12030;50.376;8.762;2022-12-10T00:41:58;0.20;99.90
23703;DHT22;12030;50.376;8.762;2022-12-10T00:44:24;0.20;99.90
23703;DHT22;12030;50.376;8.762;2022-12-10T00:46:49;0.10;99.90
23703;DHT22;12030;50.376;8.762;2022-12-10T00:49:15;0.00;99.90
23703;DHT22;12030;50.376;8.762;2022-12-10T00:51:41;0.00;99.90
23703;DHT22;12030;50.376;8.762;2022-12-10T00:54:07;0.10;99.90
23703;DHT22;12030;50.376;8.762;2022-12-10T00:56:33;0.10;99.90
23703;DHT22;12030;50.376;8.762;2022-12-10T00:59:01;0.10;99.90
23703;DHT22;12030;50.376;8.762;2022-12-10T01:01:29;0.00;99.90
23703;DHT22;12030;50.376;8.762;2022-12-10T01:03:59;0.00;99.90
23703;DHT22;12030;50.376;8.762;2022-12-10T01:06:32;0.00;99.90
23703;DHT22;12030;50.376;8.762;2022-12-10T01:09:05;-0.10;99.90
23703;DHT22;12030;50.376;8.762;2022-12-10T01:11:34;-0.10;99.90
23703;DHT22;12030;50.376;8.762;2022-12-10T01:14:00;0.00;99.90
23703;DHT22;12030;50.376;8.762;2022-12-10T01:16:26;0.00;99.90
23703;DHT22;12030;50.376;8.762;2022-12-10T01:18:54;-0.10;99.90
23703;DHT22;12030;50.376;8.762;2022-12-10T01:21:20;0.00;99.90
23703;DHT22;12030;50.376;8.762;2022-12-10T01:23:48;-0.10;99.90
23703;DHT22;12030;50.376;8.762;2022-12-10T01:26:22;-0.10;99.90
23703;DHT22;12030;50.376;8.762;2022-12-10T01:28:48;0.00;99.90
23703;DHT22;12030;50.376;8.762;2022-12-10T01:31:20;0.00;99.90
23703;DHT22;12030;50.376;8.762;2022-12-10T01:33:46;0.00;99.90
23703;DHT22;12030;50.376;8.762;2022-12-10T01:36:22;0.00;99.90
23703;DHT22;12030;50.376;8.762;2022-12-10T01:38:48;0.00;99.90
23703;DHT22;12030;50.376;8.762;2022-12-10T01:41:18;0.10;99.90
23703;DHT22;12030;50.376;8.762;2022-12-10T01:46:20;0.10;99.90
23703;DHT22;12030;50.376;8.762;2022-12-10T01:48:46;0.20;99.90
23703;DHT22;12030;50.376;8.762;2022-12-10T01:51:13;0.20;99.90
23703;DHT22;12030;50.376;8.762;2022-12-10T01:53:39;0.20;99.90
23703;DHT22;12030;50.376;8.762;2022-12-10T01:56:05;0.20;99.90
23703;DHT22;12030;50.376;8.762;2022-12-10T01:58:30;0.20;99.90
23703;DHT22;12030;50.376;8.762;2022-12-10T02:06:38;0.30;99.90
23703;DHT22;12030;50.376;8.762;2022-12-10T02:09:38;0.30;99.90
23703;DHT22;12030;50.376;8.762;2022-12-10T02:14:58;0.40;99.90
23703;DHT22;12030;50.376;8.762;2022-12-10T02:17:29;0.30;99.90
23703;DHT22;12030;50.376;8.762;2022-12-10T02:20:24;0.40;99.90
23703;DHT22;12030;50.376;8.762;2022-12-10T02:22:58;0.40;99.90
23703;DHT22;12030;50.376;8.762;2022-12-10T02:25:33;0.30;99.90
23703;DHT22;12030;50.376;8.762;2022-12-10T02:28:39;0.30;99.90
23703;DHT22;12030;50.376;8.762;2022-12-10T02:31:11;0.30;99.90
23703;DHT22;12030;50.376;8.762;2022-12-10T02:33:55;0.20;99.90
23703;DHT22;12030;50.376;8.762;2022-12-10T02:36:24;0.30;99.90
23703;DHT22;12030;50.376;8.762;2022-12-10T02:38:52;0.30;99.90
23703;DHT22;12030;50.376;8.762;2022-12-10T02:41:23;0.40;99.90
23703;DHT22;12030;50.376;8.762;2022-12-10T02:43:52;0.30;99.90
23703;DHT22;12030;50.376;8.762;2022-12-10T02:46:20;0.40;99.90
23703;DHT22;12030;50.376;8.762;2022-12-10T02:48:47;0.40;99.90
23703;DHT22;12030;50.376;8.762;2022-12-10T02:51:14;0.30;99.90
23703;DHT22;12030;50.376;8.762;2022-12-10T02:53:44;0.30;99.90
23703;DHT22;12030;50.376;8.762;2022-12-10T02:56:20;0.30;99.90
23703;DHT22;12030;50.376;8.762;2022-12-10T03:02:12;0.40;99.90
23703;DHT22;12030;50.376;8.762;2022-12-10T03:05:14;0.40;99.90
23703;DHT22;12030;50.376;8.762;2022-12-10T03:10:29;0.40;99.90
23703;DHT22;12030;50.376;8.762;2022-12-10T03:12:59;0.40;99.90
23703;DHT22;12030;50.376;8.762;2022-12-10T03:15:28;0.40;99.90
23703;DHT22;12030;50.376;8.762;2022-12-10T03:17:56;0.40;99.90
23703;DHT22;12030;50.376;8.762;2022-12-10T03:20:24;0.50;99.90
23703;DHT22;12030;50.376;8.762;2022-12-10T03:22:50;0.40;99.90
23703;DHT22;12030;50.376;8.762;2022-12-10T03:25:20;0.40;99.90
23703;DHT22;12030;50.376;8.762;2022-12-10T03:27:48;0.50;99.90
23703;DHT22;12030;50.376;8.762;2022-12-10T03:30:15;0.60;99.90
23703;DHT22;12030;50.376;8.762;2022-12-10T03:32:41;0.60;99.90
23703;DHT22;12030;50.376;8.762;2022-12-10T03:35:09;0.70;99.90
23703;DHT22;12030;50.376;8.762;2022-12-10T03:37:35;0.70;99.90
23703;DHT22;12030;50.376;8.762;2022-12-10T03:40:03;0.70;99.90
23703;DHT22;12030;50.376;8.762;2022-12-10T03:42:29;0.80;99.90
23703;DHT22;12030;50.376;8.762;2022-12-10T03:44:54;0.80;99.90
23703;DHT22;12030;50.376;8.762;2022-12-10T03:47:20;0.80;99.90
23703;DHT22;12030;50.376;8.762;2022-12-10T03:49:46;0.80;99.90
23703;DHT22;12030;50.376;8.762;2022-12-10T03:52:11;0.80;99.90
23703;DHT22;12030;50.376;8.762;2022-12-10T03:54:37;0.80;99.90
23703;DHT22;12030;50.376;8.762;2022-12-10T03:57:03;0.90;99.90
23703;DHT22;12030;50.376;8.762;2022-12-10T03:59:28;0.90;99.90
23703;DHT22;12030;50.376;8.762;2022-12-10T04:01:54;0.90;99.90
23703;DHT22;12030;50.376;8.762;2022-12-10T04:04:20;0.90;99.90
23703;DHT22;12030;50.376;8.762;2022-12-10T04:06:45;0.90;99.90
23703;DHT22;12030;50.376;8.762;2022-12-10T04:09:12;0.90;99.90
23703;DHT22;12030;50.376;8.762;2022-12-10T04:11:38;0.90;99.90
23703;DHT22;12030;50.376;8.762;2022-12-10T04:14:04;0.90;99.90
23703;DHT22;12030;50.376;8.762;2022-12-10T04:16:48;0.80;99.90
23703;DHT22;12030;50.376;8.762;2022-12-10T04:19:16;0.80;99.90
23703;DHT22;12030;50.376;8.762;2022-12-10T04:21:43;0.80;99.90
23703;DHT22;12030;50.376;8.762;2022-12-10T04:24:31;0.80;99.90
23703;DHT22;12030;50.376;8.762;2022-12-10T04:27:24;0.90;99.90
23703;DHT22;12030;50.376;8.762;2022-12-10T04:29:51;0.90;99.90
23703;DHT22;12030;50.376;8.762;2022-12-10T04:32:17;0.90;99.90
23703;DHT22;12030;50.376;8.762;2022-12-10T04:34:43;1.10;99.90
23703;DHT22;12030;50.376;8.762;2022-12-10T04:37:10;1.00;99.90
23703;DHT22;12030;50.376;8.762;2022-12-10T04:39:39;1.00;99.90
23703;DHT22;12030;50.376;8.762;2022-12-10T04:42:05;1.00;99.90
23703;DHT22;12030;50.376;8.762;2022-12-10T04:44:31;1.00;99.90
23703;DHT22;12030;50.376;8.762;2022-12-10T04:46:56;1.00;99.90
23703;DHT22;12030;50.376;8.762;2022-12-10T04:49:22;1.10;99.90
23703;DHT22;12030;50.376;8.762;2022-12-10T04:51:48;1.20;99.90
23703;DHT22;12030;50.376;8.762;2022-12-10T04:54:15;1.20;99.90
23703;DHT22;12030;50.376;8.762;2022-12-10T04:56:41;1.20;99.90
23703;DHT22;12030;50.376;8.762;2022-12-10T04:59:07;1.20;99.90
23703;DHT22;12030;50.376;8.762;2022-12-10T05:01:34;1.20;99.90
23703;DHT22;12030;50.376;8.762;2022-12-10T05:04:02;1.10;99.90
23703;DHT22;12030;50.376;8.762;2022-12-10T05:06:28;1.10;99.90
23703;DHT22;12030;50.376;8.762;2022-12-10T05:08:53;1.10;99.90
23703;DHT22;12030;50.376;8.762;2022-12-10T05:11:21;1.10;99.90
23703;DHT22;12030;50.376;8.762;2022-12-10T05:13:47;1.10;99.90
23703;DHT22;12030;50.376;8.762;2022-12-10T05:16:15;1.10;99.90
23703;DHT22;12030;50.376;8.762;2022-12-10T05:18:41;1.10;99.90
23703;DHT22;12030;50.376;8.762;2022-12-10T05:21:10;1.10;99.90
23703;DHT22;12030;50.376;8.762;2022-12-10T05:23:40;1.10;99.90
23703;DHT22;12030;50.376;8.762;2022-12-10T05:26:12;1.00;99.90
23703;DHT22;12030;50.376;8.762;2022-12-10T05:28:41;1.10;99.90
23703;DHT22;12030;50.376;8.762;2022-12-10T05:31:15;1.10;99.90
23703;DHT22;12030;50.376;8.762;2022-12-10T05:33:42;1.00;99.90
23703;DHT22;12030;50.376;8.762;2022-12-10T05:36:10;1.10;99.90
23703;DHT22;12030;50.376;8.762;2022-12-10T05:38:36;1.10;99.90
23703;DHT22;12030;50.376;8.762;2022-12-10T05:41:06;1.00;99.90
23703;DHT22;12030;50.376;8.762;2022-12-10T05:43:33;1.00;99.90
23703;DHT22;12030;50.376;8.762;2022-12-10T05:46:00;1.10;99.90
23703;DHT22;12030;50.376;8.762;2022-12-10T05:48:26;1.00;99.90
23703;DHT22;12030;50.376;8.762;2022-12-10T05:50:51;1.00;99.90
23703;DHT22;12030;50.376;8.762;2022-12-10T05:53:17;0.90;99.90
23703;DHT22;12030;50.376;8.762;2022-12-10T05:55:43;1.00;99.90
23703;DHT22;12030;50.376;8.762;2022-12-10T05:58:09;1.00;99.90
23703;DHT22;12030;50.376;8.762;2022-12-10T06:00:34;1.00;99.90
23703;DHT22;12030;50.376;8.762;2022-12-10T06:03:00;0.90;99.90
23703;DHT22;12030;50.376;8.762;2022-12-10T06:05:25;0.90;99.90
23703;DHT22;12030;50.376;8.762;2022-12-10T06:07:51;0.80;99.90
23703;DHT22;12030;50.376;8.762;2022-12-10T06:10:17;0.80;99.90
23703;DHT22;12030;50.376;8.762;2022-12-10T06:12:42;0.80;99.90
23703;DHT22;12030;50.376;8.762;2022-12-10T06:15:08;0.90;99.90
23703;DHT22;12030;50.376;8.762;2022-12-10T06:17:34;0.90;99.90
23703;DHT22;12030;50.376;8.762;2022-12-10T06:20:01;0.90;99.90
23703;DHT22;12030;50.376;8.762;2022-12-10T06:22:26;0.90;99.90
23703;DHT22;12030;50.376;8.762;2022-12-10T06:24:52;1.00;99.90
23703;DHT22;12030;50.376;8.762;2022-12-10T06:27:17;1.10;99.90
23703;DHT22;12030;50.376;8.762;2022-12-10T06:29:44;1.20;99.90
23703;DHT22;12030;50.376;8.762;2022-12-10T06:32:10;1.30;99.90
23703;DHT22;12030;50.376;8.762;2022-12-10T06:34:35;1.30;99.90
23703;DHT22;12030;50.376;8.762;2022-12-10T06:37:01;1.30;99.90
23703;DHT22;12030;50.376;8.762;2022-12-10T06:39:26;1.40;99.90
23703;DHT22;12030;50.376;8.762;2022-12-10T06:41:52;1.40;99.90
23703;DHT22;12030;50.376;8.762;2022-12-10T06:44:17;1.30;99.90
23703;DHT22;12030;50.376;8.762;2022-12-10T06:46:43;1.20;99.90
23703;DHT22;12030;50.376;8.762;2022-12-10T06:49:09;1.30;99.90
23703;DHT22;12030;50.376;8.762;2022-12-10T06:51:35;1.20;99.90
23703;DHT22;12030;50.376;8.762;2022-12-10T06:54:00;1.20;99.90
23703;DHT22;12030;50.376;8.762;2022-12-10T06:56:26;1.20;99.90
23703;DHT22;12030;50.376;8.762;2022-12-10T06:58:52;1.20;99.90
23703;DHT22;12030;50.376;8.762;2022-12-10T07:01:19;1.20;99.90
23703;DHT22;12030;50.376;8.762;2022-12-10T07:03:50;1.20;99.90
23703;DHT22;12030;50.376;8.762;2022-12-10T07:06:16;1.20;99.90
23703;DHT22;12030;50.376;8.762;2022-12-10T07:08:41;1.20;99.90
23703;DHT22;12030;50.376;8.762;2022-12-10T07:11:09;1.20;99.90
23703;DHT22;12030;50.376;8.762;2022-12-10T07:13:35;1.20;99.90
23703;DHT22;12030;50.376;8.762;2022-12-10T07:16:01;1.20;99.90
23703;DHT22;12030;50.376;8.762;2022-12-10T07:18:27;1.20;99.90
23703;DHT22;12030;50.376;8.762;2022-12-10T07:20:53;1.30;99.90
23703;DHT22;12030;50.376;8.762;2022-12-10T07:23:19;1.30;99.90
23703;DHT22;12030;50.376;8.762;2022-12-10T07:25:45;1.30;99.90
23703;DHT22;12030;50.376;8.762;2022-12-10T07:28:11;1.40;99.90
23703;DHT22;12030;50.376;8.762;2022-12-10T07:30:36;1.30;99.90
23703;DHT22;12030;50.376;8.762;2022-12-10T07:33:02;1.20;99.90
23703;DHT22;12030;50.376;8.762;2022-12-10T07:35:27;1.20;99.90
23703;DHT22;12030;50.376;8.762;2022-12-10T07:37:53;1.30;99.90
23703;DHT22;12030;50.376;8.762;2022-12-10T07:40:18;1.20;99.90
23703;DHT22;12030;50.376;8.762;2022-12-10T07:42:44;1.20;99.90
23703;DHT22;12030;50.376;8.762;2022-12-10T07:45:10;1.20;99.90
23703;DHT22;12030;50.376;8.762;2022-12-10T07:47:37;1.20;99.90
23703;DHT22;12030;50.376;8.762;2022-12-10T07:50:03;1.20;99.90
23703;DHT22;12030;50.376;8.762;2022-12-10T07:52:29;1.20;99.90
23703;DHT22;12030;50.376;8.762;2022-12-10T07:54:54;1.20;99.90
23703;DHT22;12030;50.376;8.762;2022-12-10T07:57:20;1.20;99.90
23703;DHT22;12030;50.376;8.762;2022-12-10T07:59:46;1.20;99.90
23703;DHT22;12030;50.376;8.762;2022-12-10T08:02:12;1.20;99.90
23703;DHT22;12030;50.376;8.762;2022-12-10T08:04:38;1.20;99.90
23703;DHT22;12030;50.376;8.762;2022-12-10T08:07:03;1.30;99.90
23703;DHT22;12030;50.376;8.762;2022-12-10T08:09:30;1.30;99.90
23703;DHT22;12030;50.376;8.762;2022-12-10T08:11:55;1.30;99.90
23703;DHT22;12030;50.376;8.762;2022-12-10T08:14:21;1.20;99.90
23703;DHT22;12030;50.376;8.762;2022-12-10T08:16:46;1.20;99.90
23703;DHT22;12030;50.376;8.762;2022-12-10T08:19:12;1.10;99.90
23703;DHT22;12030;50.376;8.762;2022-12-10T08:21:37;1.20;99.90
23703;DHT22;12030;50.376;8.762;2022-12-10T08:24:03;1.20;99.90
23703;DHT22;12030;50.376;8.762;2022-12-10T08:26:31;1.20;99.90
23703;DHT22;12030;50.376;8.762;2022-12-10T08:28:57;1.20;99.90
23703;DHT22;12030;50.376;8.762;2022-12-10T08:31:24;1.20;99.90
23703;DHT22;12030;50.376;8.762;2022-12-10T08:33:50;1.20;99.90
23703;DHT22;12030;50.376;8.762;2022-12-10T08:36:17;1.20;99.90
23703;DHT22;12030;50.376;8.762;2022-12-10T08:38:44;1.30;99.90
23703;DHT22;12030;50.376;8.762;2022-12-10T08:41:12;1.40;99.90
23703;DHT22;12030;50.376;8.762;2022-12-10T08:43:39;1.30;99.90
23703;DHT22;12030;50.376;8.762;2022-12-10T08:46:05;1.40;99.90
23703;DHT22;12030;50.376;8.762;2022-12-10T08:48:31;1.30;99.90
23703;DHT22;12030;50.376;8.762;2022-12-10T08:50:57;1.40;99.90
23703;DHT22;12030;50.376;8.762;2022-12-10T08:53:22;1.40;99.90
23703;DHT22;12030;50.376;8.762;2022-12-10T08:55:52;1.40;99.90
23703;DHT22;12030;50.376;8.762;2022-12-10T08:58:18;1.50;99.90
23703;DHT22;12030;50.376;8.762;2022-12-10T09:00:44;1.50;99.90
23703;DHT22;12030;50.376;8.762;2022-12-10T09:03:10;1.50;99.90
23703;DHT22;12030;50.376;8.762;2022-12-10T09:05:35;1.60;99.90
23703;DHT22;12030;50.376;8.762;2022-12-10T09:08:01;1.80;99.90
23703;DHT22;12030;50.376;8.762;2022-12-10T09:10:27;1.70;99.90
23703;DHT22;12030;50.376;8.762;2022-12-10T09:12:52;1.70;99.90
23703;DHT22;12030;50.376;8.762;2022-12-10T09:15:18;1.90;99.90
23703;DHT22;12030;50.376;8.762;2022-12-10T09:17:44;1.90;99.90
23703;DHT22;12030;50.376;8.762;2022-12-10T09:20:09;1.90;99.90
23703;DHT22;12030;50.376;8.762;2022-12-10T09:22:35;1.80;99.90
23703;DHT22;12030;50.376;8.762;2022-12-10T09:25:04;1.80;99.90
23703;DHT22;12030;50.376;8.762;2022-12-10T09:27:30;1.80;99.90
23703;DHT22;12030;50.376;8.762;2022-12-10T09:29:56;1.70;99.90
23703;DHT22;12030;50.376;8.762;2022-12-10T09:32:21;1.80;99.90
23703;DHT22;12030;50.376;8.762;2022-12-10T09:34:50;1.80;99.90
23703;DHT22;12030;50.376;8.762;2022-12-10T09:37:16;1.80;99.90
23703;DHT22;12030;50.376;8.762;2022-12-10T09:39:42;1.80;99.90
23703;DHT22;12030;50.376;8.762;2022-12-10T09:42:14;1.90;99.90
23703;DHT22;12030;50.376;8.762;2022-12-10T09:44:58;1.90;99.90
23703;DHT22;12030;50.376;8.762;2022-12-10T09:52:45;1.90;99.90
23703;DHT22;12030;50.376;8.762;2022-12-10T09:55:16;1.90;99.90
23703;DHT22;12030;50.376;8.762;2022-12-10T09:57:46;1.90;99.90
23703;DHT22;12030;50.376;8.762;2022-12-10T10:00:35;1.90;99.90
23703;DHT22;12030;50.376;8.762;2022-12-10T10:03:02;2.00;99.90
23703;DHT22;12030;50.376;8.762;2022-12-10T10:05:31;1.90;99.90
23703;DHT22;12030;50.376;8.762;2022-12-10T10:08:03;1.80;99.90
23703;DHT22;12030;50.376;8.762;2022-12-10T10:10:36;1.80;99.90
23703;DHT22;12030;50.376;8.762;2022-12-10T10:13:34;1.80;99.90
23703;DHT22;12030;50.376;8.762;2022-12-10T10:18:57;1.90;99.90
23703;DHT22;12030;50.376;8.762;2022-12-10T10:21:27;1.90;99.90
23703;DHT22;12030;50.376;8.762;2022-12-10T10:23:56;1.80;99.90
23703;DHT22;12030;50.376;8.762;2022-12-10T10:26:27;1.90;99.90
23703;DHT22;12030;50.376;8.762;2022-12-10T10:28:57;1.90;99.90
23703;DHT22;12030;50.376;8.762;2022-12-10T10:31:25;1.80;99.90
23703;DHT22;12030;50.376;8.762;2022-12-10T10:33:55;1.90;99.90
23703;DHT22;12030;50.376;8.762;2022-12-10T10:36:25;2.10;99.90
23703;DHT22;12030;50.376;8.762;2022-12-10T10:38:52;2.20;99.90
23703;DHT22;12030;50.376;8.762;2022-12-10T10:41:17;2.30;99.90
23703;DHT22;12030;50.376;8.762;2022-12-10T10:43:44;2.30;99.90
23703;DHT22;12030;50.376;8.762;2022-12-10T10:46:22;2.50;99.90
23703;DHT22;12030;50.376;8.762;2022-12-10T10:48:49;2.50;99.90
23703;DHT22;12030;50.376;8.762;2022-12-10T10:51:18;2.30;99.90
23703;DHT22;12030;50.376;8.762;2022-12-10T10:53:48;2.10;99.90
23703;DHT22;12030;50.376;8.762;2022-12-10T10:56:24;2.00;99.90
23703;DHT22;12030;50.376;8.762;2022-12-10T10:58:57;2.10;99.90
23703;DHT22;12030;50.376;8.762;2022-12-10T11:01:25;2.00;99.90
23703;DHT22;12030;50.376;8.762;2022-12-10T11:03:57;2.00;99.90
23703;DHT22;12030;50.376;8.762;2022-12-10T11:06:24;2.10;99.90
23703;DHT22;12030;50.376;8.762;2022-12-10T11:08:57;2.10;99.90
23703;DHT22;12030;50.376;8.762;2022-12-10T11:11:40;2.10;99.90
23703;DHT22;12030;50.376;8.762;2022-12-10T11:14:32;2.10;99.90
23703;DHT22;12030;50.376;8.762;2022-12-10T11:19:42;2.20;99.90
23703;DHT22;12030;50.376;8.762;2022-12-10T11:22:21;2.20;99.90
23703;DHT22;12030;50.376;8.762;2022-12-10T11:24:48;2.30;99.90
23703;DHT22;12030;50.376;8.762;2022-12-10T11:27:36;2.30;99.90
23703;DHT22;12030;50.376;8.762;2022-12-10T11:30:13;2.40;99.90
23703;DHT22;12030;50.376;8.762;2022-12-10T11:32:58;2.50;99.90
23703;DHT22;12030;50.376;8.762;2022-12-10T11:35:44;2.60;99.90
23703;DHT22;12030;50.376;8.762;2022-12-10T11:40:50;2.60;99.90
23703;DHT22;12030;50.376;8.762;2022-12-10T11:46:57;2.80;99.90
23703;DHT22;12030;50.376;8.762;2022-12-10T11:50:02;2.90;99.90
23703;DHT22;12030;50.376;8.762;2022-12-10T11:55:23;3.00;99.90
23703;DHT22;12030;50.376;8.762;2022-12-10T11:58:20;2.90;99.90
23703;DHT22;12030;50.376;8.762;2022-12-10T12:01:00;3.00;99.90
23703;DHT22;12030;50.376;8.762;2022-12-10T12:08:59;3.00;99.90
23703;DHT22;12030;50.376;8.762;2022-12-10T12:15:00;2.90;99.90
23703;DHT22;12030;50.376;8.762;2022-12-10T12:17:43;2.80;99.90
23703;DHT22;12030;50.376;8.762;2022-12-10T12:20:30;2.80;99.90
23703;DHT22;12030;50.376;8.762;2022-12-10T12:23:09;2.80;99.90
23703;DHT22;12030;50.376;8.762;2022-12-10T12:25:42;2.90;99.90
23703;DHT22;12030;50.376;8.762;2022-12-10T12:28:29;2.90;99.90
23703;DHT22;12030;50.376;8.762;2022-12-10T12:31:05;2.90;99.90
23703;DHT22;12030;50.376;8.762;2022-12-10T12:33:51;2.90;99.90
23703;DHT22;12030;50.376;8.762;2022-12-10T12:36:26;3.00;99.90
23703;DHT22;12030;50.376;8.762;2022-12-10T12:39:29;3.00;99.90
23703;DHT22;12030;50.376;8.762;2022-12-10T12:50:49;3.10;99.90
23703;DHT22;12030;50.376;8.762;2022-12-10T12:53:19;3.10;99.90
23703;DHT22;12030;50.376;8.762;2022-12-10T12:55:51;3.00;99.90
23703;DHT22;12030;50.376;8.762;2022-12-10T13:04:04;3.00;99.90
23703;DHT22;12030;50.376;8.762;2022-12-10T13:06:33;3.10;99.90
23703;DHT22;12030;50.376;8.762;2022-12-10T13:11:41;3.20;99.90
23703;DHT22;12030;50.376;8.762;2022-12-10T13:24:19;3.30;99.90
23703;DHT22;12030;50.376;8.762;2022-12-10T13:27:04;3.30;99.90
23703;DHT22;12030;50.376;8.762;2022-12-10T13:29:52;3.30;99.90
23703;DHT22;12030;50.376;8.762;2022-12-10T13:32:24;3.20;99.90
23703;DHT22;12030;50.376;8.762;2022-12-10T13:37:33;3.10;99.90
23703;DHT22;12030;50.376;8.762;2022-12-10T13:42:38;3.00;99.90
23703;DHT22;12030;50.376;8.762;2022-12-10T13:47:50;3.00;99.90
23703;DHT22;12030;50.376;8.762;2022-12-10T13:55:40;2.90;99.90
23703;DHT22;12030;50.376;8.762;2022-12-10T14:06:06;2.90;99.90
23703;DHT22;12030;50.376;8.762;2022-12-10T14:08:36;2.80;99.90
23703;DHT22;12030;50.376;8.762;2022-12-10T14:11:06;2.80;99.90
23703;DHT22;12030;50.376;8.762;2022-12-10T14:13:39;2.70;99.90
23703;DHT22;12030;50.376;8.762;2022-12-10T14:16:10;2.80;99.90
23703;DHT22;12030;50.376;8.762;2022-12-10T14:18:36;2.80;99.90
23703;DHT22;12030;50.376;8.762;2022-12-10T14:21:06;2.70;99.90
23703;DHT22;12030;50.376;8.762;2022-12-10T14:23:34;2.70;99.90
23703;DHT22;12030;50.376;8.762;2022-12-10T14:26:06;2.70;99.90
23703;DHT22;12030;50.376;8.762;2022-12-10T14:28:32;2.70;99.90
23703;DHT22;12030;50.376;8.762;2022-12-10T14:31:02;2.70;99.90
23703;DHT22;12030;50.376;8.762;2022-12-10T14:33:30;2.60;99.90
23703;DHT22;12030;50.376;8.762;2022-12-10T14:36:03;2.60;99.90
23703;DHT22;12030;50.376;8.762;2022-12-10T14:38:33;2.50;99.90
23703;DHT22;12030;50.376;8.762;2022-12-10T14:40:59;2.50;99.90
23703;DHT22;12030;50.376;8.762;2022-12-10T14:43:46;2.40;99.90
23703;DHT22;12030;50.376;8.762;2022-12-10T14:46:28;2.30;99.90
23703;DHT22;12030;50.376;8.762;2022-12-10T14:48:55;2.40;99.90
23703;DHT22;12030;50.376;8.762;2022-12-10T14:51:26;2.50;99.90
23703;DHT22;12030;50.376;8.762;2022-12-10T14:53:56;2.60;99.90
23703;DHT22;12030;50.376;8.762;2022-12-10T14:56:35;2.70;99.90
23703;DHT22;12030;50.376;8.762;2022-12-10T14:59:14;2.50;99.90
23703;DHT22;12030;50.376;8.762;2022-12-10T15:01:43;2.60;99.90
23703;DHT22;12030;50.376;8.762;2022-12-10T15:04:16;2.60;99.90
23703;DHT22;12030;50.376;8.762;2022-12-10T15:06:43;2.50;99.90
23703;DHT22;12030;50.376;8.762;2022-12-10T15:09:15;2.50;99.90
23703;DHT22;12030;50.376;8.762;2022-12-10T15:11:41;2.40;99.90
23703;DHT22;12030;50.376;8.762;2022-12-10T15:14:16;2.40;99.90
23703;DHT22;12030;50.376;8.762;2022-12-10T15:16:44;2.30;99.90
23703;DHT22;12030;50.376;8.762;2022-12-10T15:19:24;2.30;99.90
23703;DHT22;12030;50.376;8.762;2022-12-10T15:21:51;2.20;99.90
23703;DHT22;12030;50.376;8.762;2022-12-10T15:24:35;2.20;99.90
23703;DHT22;12030;50.376;8.762;2022-12-10T15:27:02;2.20;99.90
23703;DHT22;12030;50.376;8.762;2022-12-10T15:29:38;2.10;99.90
23703;DHT22;12030;50.376;8.762;2022-12-10T15:32:13;2.20;99.90
23703;DHT22;12030;50.376;8.762;2022-12-10T15:35:08;2.20;99.90
23703;DHT22;12030;50.376;8.762;2022-12-10T15:37:39;2.30;99.90
23703;DHT22;12030;50.376;8.762;2022-12-10T15:40:19;2.10;99.90
23703;DHT22;12030;50.376;8.762;2022-12-10T15:42:46;2.10;99.90
23703;DHT22;12030;50.376;8.762;2022-12-10T15:45:37;2.00;99.90
23703;DHT22;12030;50.376;8.762;2022-12-10T15:48:11;1.90;99.90
23703;DHT22;12030;50.376;8.762;2022-12-10T15:50:39;1.90;99.90
23703;DHT22;12030;50.376;8.762;2022-12-10T15:53:16;2.00;99.90
23703;DHT22;12030;50.376;8.762;2022-12-10T15:55:42;2.00;99.90
23703;DHT22;12030;50.376;8.762;2022-12-10T15:58:14;1.90;99.90
23703;DHT22;12030;50.376;8.762;2022-12-10T16:00:40;1.90;99.90
23703;DHT22;12030;50.376;8.762;2022-12-10T16:03:11;1.90;99.90
23703;DHT22;12030;50.376;8.762;2022-12-10T16:05:38;1.90;99.90
23703;DHT22;12030;50.376;8.762;2022-12-10T16:08:21;1.80;99.90
23703;DHT22;12030;50.376;8.762;2022-12-10T16:10:49;1.80;99.90
23703;DHT22;12030;50.376;8.762;2022-12-10T16:13:36;1.80;99.90
23703;DHT22;12030;50.376;8.762;2022-12-10T16:16:07;1.80;99.90
23703;DHT22;12030;50.376;8.762;2022-12-10T16:18:34;1.80;99.90
23703;DHT22;12030;50.376;8.762;2022-12-10T16:21:02;1.60;99.90
23703;DHT22;12030;50.376;8.762;2022-12-10T16:23:29;1.60;99.90
23703;DHT22;12030;50.376;8.762;2022-12-10T16:25:54;1.60;99.90
23703;DHT22;12030;50.376;8.762;2022-12-10T16:28:21;1.60;99.90
23703;DHT22;12030;50.376;8.762;2022-12-10T16:30:52;1.70;99.90
23703;DHT22;12030;50.376;8.762;2022-12-10T16:33:20;1.60;99.90
23703;DHT22;12030;50.376;8.762;2022-12-10T16:35:46;1.60;99.90
23703;DHT22;12030;50.376;8.762;2022-12-10T16:38:12;1.60;99.90
23703;DHT22;12030;50.376;8.762;2022-12-10T16:40:40;1.60;99.90
23703;DHT22;12030;50.376;8.762;2022-12-10T16:43:19;1.60;99.90
23703;DHT22;12030;50.376;8.762;2022-12-10T16:45:45;1.50;99.90
23703;DHT22;12030;50.376;8.762;2022-12-10T16:48:11;1.40;99.90
23703;DHT22;12030;50.376;8.762;2022-12-10T16:50:37;1.30;99.90
23703;DHT22;12030;50.376;8.762;2022-12-10T16:53:31;1.20;99.90
23703;DHT22;12030;50.376;8.762;2022-12-10T16:56:01;1.10;99.90
23703;DHT22;12030;50.376;8.762;2022-12-10T16:58:26;1.00;99.90
23703;DHT22;12030;50.376;8.762;2022-12-10T17:00:53;1.00;99.90
23703;DHT22;12030;50.376;8.762;2022-12-10T17:03:21;0.90;99.90
23703;DHT22;12030;50.376;8.762;2022-12-10T17:05:52;0.70;99.90
23703;DHT22;12030;50.376;8.762;2022-12-10T17:08:19;0.70;99.90
23703;DHT22;12030;50.376;8.762;2022-12-10T17:10:45;0.60;99.90
23703;DHT22;12030;50.376;8.762;2022-12-10T17:13:29;0.50;99.90
23703;DHT22;12030;50.376;8.762;2022-12-10T17:15:56;0.50;99.90
23703;DHT22;12030;50.376;8.762;2022-12-10T17:18:22;0.40;99.90
23703;DHT22;12030;50.376;8.762;2022-12-10T17:20:48;0.40;99.90
23703;DHT22;12030;50.376;8.762;2022-12-10T17:23:14;0.40;99.90
23703;DHT22;12030;50.376;8.762;2022-12-10T17:25:40;0.40;99.90
23703;DHT22;12030;50.376;8.762;2022-12-10T17:28:10;0.30;99.90
23703;DHT22;12030;50.376;8.762;2022-12-10T17:30:37;0.20;99.90
23703;DHT22;12030;50.376;8.762;2022-12-10T17:33:02;0.20;99.90
23703;DHT22;12030;50.376;8.762;2022-12-10T17:35:28;0.20;99.90